sensor_id;sensor_type;location;lat;lon;timestamp;P1;durP1;ratioP1;P2;durP2;ratioP2
23400;SDS011;11873;49.300;8.920;2024-03-02T00:03:24;10.03;;;8.40;;
23400;SDS011;11873;49.300;8.920;2024-03-02T00:08:24;9.40;;;7.97;;
23400;SDS011;11873;49.300;8.920;2024-03-02T00:13:25;8.30;;;7.43;;
23400;SDS011;11873;49.300;8.920;2024-03-02T00:18:35;9.93;;;7.97;;
23400;SDS011;11873;49.300;8.920;2024-03-02T00:23:36;11.07;;;8.47;;
23400;SDS011;11873;49.300;8.920;2024-03-02T00:28:36;11.17;;;8.40;;
23400;SDS011;11873;49.300;8.920;2024-03-02T00:33:43;16.33;;;9.20;;
23400;SDS011;11873;49.300;8.920;2024-03-02T00:38:45;9.73;;;7.93;;
23400;SDS011;11873;49.300;8.920;2024-03-02T00:48:55;11.50;;;7.40;;
23400;SDS011;11873;49.300;8.920;2024-03-02T00:53:58;10.43;;;8.33;;
23400;SDS011;11873;49.300;8.920;2024-03-02T00:58:58;11.70;;;7.93;;
23400;SDS011;11873;49.300;8.920;2024-03-02T01:03:59;9.27;;;7.37;;
23400;SDS011;11873;49.300;8.920;2024-03-02T01:08:59;10.53;;;8.20;;
23400;SDS011;11873;49.300;8.920;2024-03-02T01:13:59;10.77;;;7.90;;
23400;SDS011;11873;49.300;8.920;2024-03-02T01:18:59;14.67;;;8.30;;
23400;SDS011;11873;49.300;8.920;2024-03-02T01:24:00;10.23;;;7.67;;
23400;SDS011;11873;49.300;8.920;2024-03-02T01:29:00;9.37;;;7.70;;
23400;SDS011;11873;49.300;8.920;2024-03-02T01:34:00;9.60;;;8.07;;
23400;SDS011;11873;49.300;8.920;2024-03-02T01:39:00;9.87;;;8.40;;
23400;SDS011;11873;49.300;8.920;2024-03-02T01:44:00;13.60;;;9.93;;
23400;SDS011;11873;49.300;8.920;2024-03-02T01:49:00;14.20;;;9.27;;
23400;SDS011;11873;49.300;8.920;2024-03-02T01:54:01;13.30;;;8.33;;
23400;SDS011;11873;49.300;8.920;2024-03-02T01:59:01;11.53;;;8.17;;
23400;SDS011;11873;49.300;8.920;2024-03-02T02:04:01;11.70;;;8.43;;
23400;SDS011;11873;49.300;8.920;2024-03-02T02:09:01;13.63;;;9.07;;
23400;SDS011;11873;49.300;8.920;2024-03-02T02:14:02;10.50;;;8.13;;
23400;SDS011;11873;49.300;8.920;2024-03-02T02:19:02;8.93;;;7.30;;
23400;SDS011;11873;49.300;8.920;2024-03-02T02:24:02;10.07;;;6.90;;
23400;SDS011;11873;49.300;8.920;2024-03-02T02:29:02;8.87;;;6.93;;
23400;SDS011;11873;49.300;8.920;2024-03-02T02:34:02;9.70;;;7.73;;
23400;SDS011;11873;49.300;8.920;2024-03-02T02:39:03;11.40;;;7.57;;
23400;SDS011;11873;49.300;8.920;2024-03-02T02:44:04;10.50;;;7.80;;
23400;SDS011;11873;49.300;8.920;2024-03-02T02:49:04;10.93;;;6.50;;
23400;SDS011;11873;49.300;8.920;2024-03-02T02:54:04;7.97;;;6.20;;
23400;SDS011;11873;49.300;8.920;2024-03-02T02:59:04;9.13;;;7.17;;
23400;SDS011;11873;49.300;8.920;2024-03-02T03:04:05;9.47;;;7.37;;
23400;SDS011;11873;49.300;8.920;2024-03-02T03:09:05;9.20;;;7.27;;
23400;SDS011;11873;49.300;8.920;2024-03-02T03:14:05;8.37;;;7.47;;
23400;SDS011;11873;49.300;8.920;2024-03-02T03:19:05;8.00;;;7.00;;
23400;SDS011;11873;49.300;8.920;2024-03-02T03:24:05;8.07;;;7.17;;
23400;SDS011;11873;49.300;8.920;2024-03-02T03:29:05;8.90;;;6.87;;
23400;SDS011;11873;49.300;8.920;2024-03-02T03:34:06;7.83;;;7.03;;
23400;SDS011;11873;49.300;8.920;2024-03-02T03:39:06;8.53;;;6.97;;
23400;SDS011;11873;49.300;8.920;2024-03-02T03:44:06;8.83;;;6.93;;
23400;SDS011;11873;49.300;8.920;2024-03-02T03:49:06;8.90;;;6.90;;
23400;SDS011;11873;49.300;8.920;2024-03-02T03:54:06;8.73;;;7.67;;
23400;SDS011;11873;49.300;8.920;2024-03-02T03:59:07;9.53;;;7.13;;
23400;SDS011;11873;49.300;8.920;2024-03-02T04:04:07;8.63;;;7.33;;
23400;SDS011;11873;49.300;8.920;2024-03-02T04:09:07;10.80;;;7.57;;
23400;SDS011;11873;49.300;8.920;2024-03-02T04:14:07;8.73;;;7.83;;
23400;SDS011;11873;49.300;8.920;2024-03-02T04:19:07;9.13;;;8.10;;
23400;SDS011;11873;49.300;8.920;2024-03-02T04:24:07;10.23;;;8.17;;
23400;SDS011;11873;49.300;8.920;2024-03-02T04:29:08;10.03;;;7.90;;
23400;SDS011;11873;49.300;8.920;2024-03-02T04:34:08;10.10;;;8.53;;
23400;SDS011;11873;49.300;8.920;2024-03-02T04:39:08;10.93;;;8.60;;
23400;SDS011;11873;49.300;8.920;2024-03-02T04:44:08;9.70;;;8.37;;
23400;SDS011;11873;49.300;8.920;2024-03-02T04:49:08;9.60;;;8.07;;
23400;SDS011;11873;49.300;8.920;2024-03-02T04:54:09;10.50;;;7.87;;
23400;SDS011;11873;49.300;8.920;2024-03-02T04:59:09;9.83;;;8.60;;
23400;SDS011;11873;49.300;8.920;2024-03-02T05:04:09;9.33;;;8.07;;
23400;SDS011;11873;49.300;8.920;2024-03-02T05:09:10;10.40;;;8.57;;
23400;SDS011;11873;49.300;8.920;2024-03-02T05:14:10;10.47;;;8.13;;
23400;SDS011;11873;49.300;8.920;2024-03-02T05:19:10;9.97;;;7.90;;
23400;SDS011;11873;49.300;8.920;2024-03-02T05:24:10;9.17;;;7.50;;
23400;SDS011;11873;49.300;8.920;2024-03-02T05:29:10;8.27;;;7.40;;
23400;SDS011;11873;49.300;8.920;2024-03-02T05:34:11;9.63;;;8.03;;
23400;SDS011;11873;49.300;8.920;2024-03-02T05:39:11;10.30;;;8.10;;
23400;SDS011;11873;49.300;8.920;2024-03-02T05:44:11;9.43;;;7.90;;
23400;SDS011;11873;49.300;8.920;2024-03-02T05:49:11;10.40;;;8.40;;
23400;SDS011;11873;49.300;8.920;2024-03-02T05:54:11;10.25;;;8.75;;
23400;SDS011;11873;49.300;8.920;2024-03-02T05:59:12;9.60;;;8.17;;
23400;SDS011;11873;49.300;8.920;2024-03-02T06:04:12;10.57;;;8.60;;
23400;SDS011;11873;49.300;8.920;2024-03-02T06:09:13;9.63;;;8.43;;
23400;SDS011;11873;49.300;8.920;2024-03-02T06:14:13;12.23;;;9.23;;
23400;SDS011;11873;49.300;8.920;2024-03-02T06:19:13;11.70;;;8.30;;
23400;SDS011;11873;49.300;8.920;2024-03-02T06:24:13;11.27;;;8.63;;
23400;SDS011;11873;49.300;8.920;2024-03-02T06:29:13;10.63;;;8.60;;
23400;SDS011;11873;49.300;8.920;2024-03-02T06:34:13;14.27;;;10.33;;
23400;SDS011;11873;49.300;8.920;2024-03-02T06:39:14;12.83;;;9.73;;
23400;SDS011;11873;49.300;8.920;2024-03-02T06:44:14;11.53;;;9.53;;
23400;SDS011;11873;49.300;8.920;2024-03-02T06:49:14;12.57;;;9.73;;
23400;SDS011;11873;49.300;8.920;2024-03-02T06:54:14;12.40;;;8.87;;
23400;SDS011;11873;49.300;8.920;2024-03-02T06:59:14;12.00;;;8.57;;
23400;SDS011;11873;49.300;8.920;2024-03-02T07:04:15;12.03;;;10.20;;
23400;SDS011;11873;49.300;8.920;2024-03-02T07:09:15;11.53;;;10.33;;
23400;SDS011;11873;49.300;8.920;2024-03-02T07:14:15;11.63;;;9.13;;
23400;SDS011;11873;49.300;8.920;2024-03-02T07:19:15;11.50;;;9.30;;
23400;SDS011;11873;49.300;8.920;2024-03-02T07:24:15;12.03;;;8.63;;
23400;SDS011;11873;49.300;8.920;2024-03-02T07:29:16;13.40;;;10.50;;
23400;SDS011;11873;49.300;8.920;2024-03-02T07:34:16;11.37;;;9.87;;
23400;SDS011;11873;49.300;8.920;2024-03-02T07:39:16;10.60;;;8.60;;
23400;SDS011;11873;49.300;8.920;2024-03-02T07:44:16;12.00;;;9.27;;
23400;SDS011;11873;49.300;8.920;2024-03-02T07:49:17;10.43;;;9.23;;
23400;SDS011;11873;49.300;8.920;2024-03-02T07:54:17;11.87;;;9.67;;
23400;SDS011;11873;49.300;8.920;2024-03-02T07:59:18;15.17;;;11.93;;
23400;SDS011;11873;49.300;8.920;2024-03-02T08:04:18;12.83;;;11.30;;
23400;SDS011;11873;49.300;8.920;2024-03-02T08:09:18;11.97;;;10.63;;
23400;SDS011;11873;49.300;8.920;2024-03-02T08:14:18;16.70;;;11.70;;
23400;SDS011;11873;49.300;8.920;2024-03-02T08:19:18;12.93;;;11.10;;
23400;SDS011;11873;49.300;8.920;2024-03-02T08:24:18;13.10;;;10.63;;
23400;SDS011;11873;49.300;8.920;2024-03-02T08:29:19;11.03;;;9.17;;
23400;SDS011;11873;49.300;8.920;2024-03-02T08:34:19;10.73;;;8.87;;
23400;SDS011;11873;49.300;8.920;2024-03-02T08:39:19;9.00;;;7.63;;
23400;SDS011;11873;49.300;8.920;2024-03-02T08:44:20;11.07;;;8.10;;
23400;SDS011;11873;49.300;8.920;2024-03-02T08:49:20;9.40;;;7.80;;
23400;SDS011;11873;49.300;8.920;2024-03-02T08:54:21;11.03;;;8.50;;
23400;SDS011;11873;49.300;8.920;2024-03-02T08:59:23;8.03;;;6.57;;
23400;SDS011;11873;49.300;8.920;2024-03-02T09:04:23;6.87;;;5.73;;
23400;SDS011;11873;49.300;8.920;2024-03-02T09:09:24;8.63;;;6.93;;
23400;SDS011;11873;49.300;8.920;2024-03-02T09:14:24;9.47;;;6.67;;
23400;SDS011;11873;49.300;8.920;2024-03-02T09:19:24;6.50;;;5.27;;
23400;SDS011;11873;49.300;8.920;2024-03-02T09:24:24;9.17;;;6.30;;
23400;SDS011;11873;49.300;8.920;2024-03-02T09:29:24;7.30;;;5.87;;
23400;SDS011;11873;49.300;8.920;2024-03-02T09:34:25;6.07;;;5.47;;
23400;SDS011;11873;49.300;8.920;2024-03-02T09:39:25;7.40;;;5.60;;
23400;SDS011;11873;49.300;8.920;2024-03-02T09:44:25;5.23;;;4.30;;
23400;SDS011;11873;49.300;8.920;2024-03-02T09:49:25;6.23;;;5.07;;
23400;SDS011;11873;49.300;8.920;2024-03-02T09:54:26;7.37;;;4.97;;
23400;SDS011;11873;49.300;8.920;2024-03-02T09:59:26;4.87;;;3.67;;
23400;SDS011;11873;49.300;8.920;2024-03-02T10:04:26;6.23;;;4.53;;
23400;SDS011;11873;49.300;8.920;2024-03-02T10:09:27;5.23;;;4.40;;
23400;SDS011;11873;49.300;8.920;2024-03-02T10:14:27;4.37;;;3.77;;
23400;SDS011;11873;49.300;8.920;2024-03-02T10:19:28;5.07;;;4.20;;
23400;SDS011;11873;49.300;8.920;2024-03-02T10:24:34;5.73;;;4.87;;
23400;SDS011;11873;49.300;8.920;2024-03-02T10:29:38;4.83;;;4.07;;
23400;SDS011;11873;49.300;8.920;2024-03-02T10:34:42;6.10;;;4.20;;
23400;SDS011;11873;49.300;8.920;2024-03-02T10:39:42;6.20;;;4.53;;
23400;SDS011;11873;49.300;8.920;2024-03-02T10:44:42;5.47;;;4.30;;
23400;SDS011;11873;49.300;8.920;2024-03-02T10:49:43;4.23;;;3.47;;
23400;SDS011;11873;49.300;8.920;2024-03-02T10:54:44;4.50;;;3.57;;
23400;SDS011;11873;49.300;8.920;2024-03-02T10:59:56;7.17;;;5.20;;
23400;SDS011;11873;49.300;8.920;2024-03-02T11:04:56;5.90;;;4.03;;
23400;SDS011;11873;49.300;8.920;2024-03-02T11:09:59;5.30;;;3.70;;
23400;SDS011;11873;49.300;8.920;2024-03-02T11:15:00;4.60;;;3.60;;
23400;SDS011;11873;49.300;8.920;2024-03-02T11:20:00;3.70;;;2.90;;
23400;SDS011;11873;49.300;8.920;2024-03-02T11:25:02;5.77;;;4.07;;
23400;SDS011;11873;49.300;8.920;2024-03-02T11:30:02;4.70;;;3.23;;
23400;SDS011;11873;49.300;8.920;2024-03-02T11:35:02;4.20;;;3.27;;
23400;SDS011;11873;49.300;8.920;2024-03-02T11:40:03;4.30;;;2.73;;
23400;SDS011;11873;49.300;8.920;2024-03-02T11:45:03;5.63;;;4.10;;
23400;SDS011;11873;49.300;8.920;2024-03-02T11:50:03;4.40;;;3.50;;
23400;SDS011;11873;49.300;8.920;2024-03-02T11:55:04;4.73;;;3.30;;
23400;SDS011;11873;49.300;8.920;2024-03-02T12:00:05;1.40;;;1.30;;
23400;SDS011;11873;49.300;8.920;2024-03-02T12:05:05;4.20;;;2.53;;
23400;SDS011;11873;49.300;8.920;2024-03-02T12:10:05;3.00;;;2.70;;
23400;SDS011;11873;49.300;8.920;2024-03-02T12:15:06;3.30;;;2.57;;
23400;SDS011;11873;49.300;8.920;2024-03-02T12:20:06;3.77;;;3.00;;
23400;SDS011;11873;49.300;8.920;2024-03-02T12:25:07;3.10;;;2.50;;
23400;SDS011;11873;49.300;8.920;2024-03-02T12:30:07;4.63;;;2.63;;
23400;SDS011;11873;49.300;8.920;2024-03-02T12:35:07;3.30;;;3.00;;
23400;SDS011;11873;49.300;8.920;2024-03-02T12:40:09;3.33;;;2.53;;
23400;SDS011;11873;49.300;8.920;2024-03-02T12:45:09;1.70;;;1.57;;
23400;SDS011;11873;49.300;8.920;2024-03-02T12:50:10;2.83;;;2.50;;
23400;SDS011;11873;49.300;8.920;2024-03-02T12:55:10;2.70;;;2.47;;
23400;SDS011;11873;49.300;8.920;2024-03-02T13:00:10;3.33;;;2.50;;
23400;SDS011;11873;49.300;8.920;2024-03-02T13:05:10;3.13;;;2.83;;
23400;SDS011;11873;49.300;8.920;2024-03-02T13:10:10;4.20;;;3.80;;
23400;SDS011;11873;49.300;8.920;2024-03-02T13:15:12;3.23;;;2.53;;
23400;SDS011;11873;49.300;8.920;2024-03-02T13:20:12;1.70;;;1.27;;
23400;SDS011;11873;49.300;8.920;2024-03-02T13:25:12;2.08;;;1.87;;
23400;SDS011;11873;49.300;8.920;2024-03-02T13:30:12;1.77;;;1.60;;
23400;SDS011;11873;49.300;8.920;2024-03-02T13:35:13;2.20;;;1.53;;
23400;SDS011;11873;49.300;8.920;2024-03-02T13:40:13;2.40;;;2.00;;
23400;SDS011;11873;49.300;8.920;2024-03-02T13:45:13;1.43;;;1.33;;
23400;SDS011;11873;49.300;8.920;2024-03-02T13:50:13;1.10;;;1.10;;
23400;SDS011;11873;49.300;8.920;2024-03-02T13:55:13;1.17;;;1.17;;
23400;SDS011;11873;49.300;8.920;2024-03-02T14:00:14;1.60;;;1.50;;
23400;SDS011;11873;49.300;8.920;2024-03-02T14:05:14;0.73;;;0.73;;
23400;SDS011;11873;49.300;8.920;2024-03-02T14:10:14;1.23;;;1.13;;
23400;SDS011;11873;49.300;8.920;2024-03-02T14:15:15;1.60;;;1.30;;
23400;SDS011;11873;49.300;8.920;2024-03-02T14:20:15;1.87;;;1.77;;
23400;SDS011;11873;49.300;8.920;2024-03-02T14:25:15;1.20;;;1.10;;
23400;SDS011;11873;49.300;8.920;2024-03-02T14:30:15;1.40;;;1.10;;
23400;SDS011;11873;49.300;8.920;2024-03-02T14:35:16;1.30;;;1.20;;
23400;SDS011;11873;49.300;8.920;2024-03-02T14:40:16;0.93;;;0.93;;
23400;SDS011;11873;49.300;8.920;2024-03-02T14:45:16;1.17;;;1.17;;
23400;SDS011;11873;49.300;8.920;2024-03-02T14:50:16;1.10;;;1.00;;
23400;SDS011;11873;49.300;8.920;2024-03-02T14:55:16;1.30;;;1.20;;
23400;SDS011;11873;49.300;8.920;2024-03-02T15:00:17;1.20;;;1.20;;
23400;SDS011;11873;49.300;8.920;2024-03-02T15:05:17;1.43;;;1.23;;
23400;SDS011;11873;49.300;8.920;2024-03-02T15:10:17;1.07;;;1.00;;
23400;SDS011;11873;49.300;8.920;2024-03-02T15:15:17;1.03;;;0.87;;
23400;SDS011;11873;49.300;8.920;2024-03-02T15:20:18;1.27;;;0.93;;
23400;SDS011;11873;49.300;8.920;2024-03-02T15:25:18;0.70;;;0.70;;
23400;SDS011;11873;49.300;8.920;2024-03-02T15:30:18;1.97;;;0.90;;
23400;SDS011;11873;49.300;8.920;2024-03-02T15:35:18;0.60;;;0.60;;
23400;SDS011;11873;49.300;8.920;2024-03-02T15:40:19;0.93;;;0.90;;
23400;SDS011;11873;49.300;8.920;2024-03-02T15:45:19;1.63;;;0.87;;
23400;SDS011;11873;49.300;8.920;2024-03-02T15:50:19;0.80;;;0.80;;
23400;SDS011;11873;49.300;8.920;2024-03-02T15:55:19;1.00;;;1.00;;
23400;SDS011;11873;49.300;8.920;2024-03-02T16:00:19;0.77;;;0.77;;
23400;SDS011;11873;49.300;8.920;2024-03-02T16:05:20;1.33;;;1.10;;
23400;SDS011;11873;49.300;8.920;2024-03-02T16:10:20;1.07;;;1.03;;
23400;SDS011;11873;49.300;8.920;2024-03-02T16:15:20;1.67;;;0.93;;
23400;SDS011;11873;49.300;8.920;2024-03-02T16:20:20;1.10;;;1.00;;
23400;SDS011;11873;49.300;8.920;2024-03-02T16:25:20;2.33;;;1.70;;
23400;SDS011;11873;49.300;8.920;2024-03-02T16:30:20;1.40;;;1.30;;
23400;SDS011;11873;49.300;8.920;2024-03-02T16:35:21;1.40;;;1.10;;
23400;SDS011;11873;49.300;8.920;2024-03-02T16:40:21;1.60;;;1.50;;
23400;SDS011;11873;49.300;8.920;2024-03-02T16:45:21;1.50;;;1.40;;
23400;SDS011;11873;49.300;8.920;2024-03-02T16:50:21;1.70;;;1.47;;
23400;SDS011;11873;49.300;8.920;2024-03-02T16:55:22;1.60;;;1.23;;
23400;SDS011;11873;49.300;8.920;2024-03-02T17:00:22;3.07;;;1.77;;
23400;SDS011;11873;49.300;8.920;2024-03-02T17:05:22;3.92;;;3.20;;
23400;SDS011;11873;49.300;8.920;2024-03-02T17:10:23;3.87;;;3.30;;
23400;SDS011;11873;49.300;8.920;2024-03-02T17:15:23;3.73;;;2.77;;
23400;SDS011;11873;49.300;8.920;2024-03-02T17:20:23;3.13;;;2.40;;
23400;SDS011;11873;49.300;8.920;2024-03-02T17:25:23;3.83;;;2.47;;
23400;SDS011;11873;49.300;8.920;2024-03-02T17:30:23;4.03;;;2.90;;
23400;SDS011;11873;49.300;8.920;2024-03-02T17:35:23;3.07;;;2.03;;
23400;SDS011;11873;49.300;8.920;2024-03-02T17:40:24;2.80;;;1.90;;
23400;SDS011;11873;49.300;8.920;2024-03-02T17:45:24;3.30;;;2.97;;
23400;SDS011;11873;49.300;8.920;2024-03-02T17:50:24;2.37;;;2.17;;
23400;SDS011;11873;49.300;8.920;2024-03-02T17:55:24;3.03;;;2.37;;
23400;SDS011;11873;49.300;8.920;2024-03-02T18:00:24;2.00;;;1.90;;
23400;SDS011;11873;49.300;8.920;2024-03-02T18:05:25;1.80;;;1.70;;
23400;SDS011;11873;49.300;8.920;2024-03-02T18:10:25;1.80;;;1.53;;
23400;SDS011;11873;49.300;8.920;2024-03-02T18:15:25;1.70;;;1.60;;
23400;SDS011;11873;49.300;8.920;2024-03-02T18:20:25;2.73;;;2.10;;
23400;SDS011;11873;49.300;8.920;2024-03-02T18:25:25;2.03;;;1.87;;
23400;SDS011;11873;49.300;8.920;2024-03-02T18:30:26;3.07;;;2.77;;
23400;SDS011;11873;49.300;8.920;2024-03-02T18:35:26;1.37;;;1.27;;
23400;SDS011;11873;49.300;8.920;2024-03-02T18:40:26;0.50;;;0.50;;
23400;SDS011;11873;49.300;8.920;2024-03-02T18:45:26;3.27;;;2.97;;
23400;SDS011;11873;49.300;8.920;2024-03-02T18:50:26;1.50;;;1.40;;
23400;SDS011;11873;49.300;8.920;2024-03-02T18:55:27;2.60;;;1.97;;
23400;SDS011;11873;49.300;8.920;2024-03-02T19:00:27;5.43;;;3.50;;
23400;SDS011;11873;49.300;8.920;2024-03-02T19:05:27;3.20;;;2.37;;
23400;SDS011;11873;49.300;8.920;2024-03-02T19:10:27;5.57;;;3.77;;
23400;SDS011;11873;49.300;8.920;2024-03-02T19:15:27;5.33;;;4.30;;
23400;SDS011;11873;49.300;8.920;2024-03-02T19:20:27;7.10;;;4.67;;
23400;SDS011;11873;49.300;8.920;2024-03-02T19:25:28;6.90;;;4.20;;
23400;SDS011;11873;49.300;8.920;2024-03-02T19:30:28;5.37;;;3.97;;
23400;SDS011;11873;49.300;8.920;2024-03-02T19:35:28;4.37;;;3.40;;
23400;SDS011;11873;49.300;8.920;2024-03-02T19:40:28;7.13;;;5.23;;
23400;SDS011;11873;49.300;8.920;2024-03-02T19:45:28;7.97;;;5.53;;
23400;SDS011;11873;49.300;8.920;2024-03-02T19:50:28;5.53;;;4.13;;
23400;SDS011;11873;49.300;8.920;2024-03-02T19:55:29;1.33;;;1.23;;
23400;SDS011;11873;49.300;8.920;2024-03-02T20:00:29;5.93;;;4.37;;
23400;SDS011;11873;49.300;8.920;2024-03-02T20:05:29;8.60;;;4.30;;
23400;SDS011;11873;49.300;8.920;2024-03-02T20:10:29;6.13;;;5.03;;
23400;SDS011;11873;49.300;8.920;2024-03-02T20:15:30;7.43;;;5.80;;
23400;SDS011;11873;49.300;8.920;2024-03-02T20:20:30;10.17;;;6.97;;
23400;SDS011;11873;49.300;8.920;2024-03-02T20:25:30;11.07;;;9.03;;
23400;SDS011;11873;49.300;8.920;2024-03-02T20:30:30;9.83;;;7.97;;
23400;SDS011;11873;49.300;8.920;2024-03-02T20:35:30;15.47;;;9.30;;
23400;SDS011;11873;49.300;8.920;2024-03-02T20:40:31;13.03;;;10.23;;
23400;SDS011;11873;49.300;8.920;2024-03-02T20:45:31;12.67;;;8.67;;
23400;SDS011;11873;49.300;8.920;2024-03-02T20:50:31;8.43;;;7.03;;
23400;SDS011;11873;49.300;8.920;2024-03-02T20:55:31;9.70;;;7.13;;
23400;SDS011;11873;49.300;8.920;2024-03-02T21:00:31;8.13;;;6.63;;
23400;SDS011;11873;49.300;8.920;2024-03-02T21:05:31;9.10;;;6.73;;
23400;SDS011;11873;49.300;8.920;2024-03-02T21:10:32;9.10;;;7.17;;
23400;SDS011;11873;49.300;8.920;2024-03-02T21:15:32;11.33;;;6.43;;
23400;SDS011;11873;49.300;8.920;2024-03-02T21:20:32;9.63;;;7.17;;
23400;SDS011;11873;49.300;8.920;2024-03-02T21:25:32;9.47;;;6.63;;
23400;SDS011;11873;49.300;8.920;2024-03-02T21:30:33;15.03;;;8.60;;
23400;SDS011;11873;49.300;8.920;2024-03-02T21:35:33;12.17;;;8.57;;
23400;SDS011;11873;49.300;8.920;2024-03-02T21:40:33;13.73;;;7.93;;
23400;SDS011;11873;49.300;8.920;2024-03-02T21:45:34;7.37;;;5.60;;
23400;SDS011;11873;49.300;8.920;2024-03-02T21:50:34;14.27;;;8.73;;
23400;SDS011;11873;49.300;8.920;2024-03-02T21:55:34;11.77;;;8.43;;
23400;SDS011;11873;49.300;8.920;2024-03-02T22:00:34;15.20;;;9.13;;
23400;SDS011;11873;49.300;8.920;2024-03-02T22:05:34;14.53;;;9.93;;
23400;SDS011;11873;49.300;8.920;2024-03-02T22:10:35;12.27;;;8.87;;
23400;SDS011;11873;49.300;8.920;2024-03-02T22:15:35;13.33;;;8.70;;
23400;SDS011;11873;49.300;8.920;2024-03-02T22:20:35;13.37;;;9.43;;
23400;SDS011;11873;49.300;8.920;2024-03-02T22:25:35;15.17;;;10.20;;
23400;SDS011;11873;49.300;8.920;2024-03-02T22:30:35;15.93;;;9.80;;
23400;SDS011;11873;49.300;8.920;2024-03-02T22:35:35;14.37;;;10.10;;
23400;SDS011;11873;49.300;8.920;2024-03-02T22:40:36;11.47;;;8.67;;
23400;SDS011;11873;49.300;8.920;2024-03-02T22:45:36;12.87;;;8.43;;
23400;SDS011;11873;49.300;8.920;2024-03-02T22:50:36;12.40;;;8.60;;
23400;SDS011;11873;49.300;8.920;2024-03-02T22:55:36;17.27;;;9.97;;
23400;SDS011;11873;49.300;8.920;2024-03-02T23:00:36;13.63;;;9.43;;
23400;SDS011;11873;49.300;8.920;2024-03-02T23:05:36;12.40;;;9.00;;
23400;SDS011;11873;49.300;8.920;2024-03-02T23:10:36;13.27;;;9.40;;
23400;SDS011;11873;49.300;8.920;2024-03-02T23:15:37;12.67;;;8.67;;
23400;SDS011;11873;49.300;8.920;2024-03-02T23:20:37;10.63;;;7.80;;
23400;SDS011;11873;49.300;8.920;2024-03-02T23:25:37;13.17;;;8.20;;
23400;SDS011;11873;49.300;8.920;2024-03-02T23:30:37;9.70;;;6.67;;
23400;SDS011;11873;49.300;8.920;2024-03-02T23:35:37;13.87;;;9.17;;
23400;SDS011;11873;49.300;8.920;2024-03-02T23:40:38;10.33;;;7.13;;
23400;SDS011;11873;49.300;8.920;2024-03-02T23:45:38;9.93;;;7.00;;
23400;SDS011;11873;49.300;8.920;2024-03-02T23:50:38;13.00;;;7.37;;
23400;SDS011;11873;49.300;8.920;2024-03-02T23:55:38;14.87;;;9.60;;
